sensor_id;sensor_type;location;lat;lon;timestamp;temperature;humidity
20459;DHT22;10388;52.314;7.938;2023-01-16T00:00:22;5.10;99.90
20459;DHT22;10388;52.314;7.938;2023-01-16T00:02:53;5.00;99.90
20459;DHT22;10388;52.314;7.938;2023-01-16T00:05:23;5.00;99.90
20459;DHT22;10388;52.314;7.938;2023-01-16T00:07:54;5.00;99.90
20459;DHT22;10388;52.314;7.938;2023-01-16T00:10:24;5.00;99.90
20459;DHT22;10388;52.314;7.938;2023-01-16T00:12:55;5.00;99.90
20459;DHT22;10388;52.314;7.938;2023-01-16T00:15:25;5.10;99.90
20459;DHT22;10388;52.314;7.938;2023-01-16T00:17:56;5.10;99.90
20459;DHT22;10388;52.314;7.938;2023-01-16T00:20:27;5.10;99.90
20459;DHT22;10388;52.314;7.938;2023-01-16T00:22:57;5.10;99.90
20459;DHT22;10388;52.314;7.938;2023-01-16T00:25:27;5.10;99.90
20459;DHT22;10388;52.314;7.938;2023-01-16T00:27:58;5.10;99.90
20459;DHT22;10388;52.314;7.938;2023-01-16T00:30:28;5.10;99.90
20459;DHT22;10388;52.314;7.938;2023-01-16T00:32:59;5.10;99.90
20459;DHT22;10388;52.314;7.938;2023-01-16T00:35:30;5.10;99.90
20459;DHT22;10388;52.314;7.938;2023-01-16T00:38:01;5.10;99.90
20459;DHT22;10388;52.314;7.938;2023-01-16T00:40:31;5.10;99.90
20459;DHT22;10388;52.314;7.938;2023-01-16T00:43:02;5.10;99.90
20459;DHT22;10388;52.314;7.938;2023-01-16T00:45:32;5.10;99.90
20459;DHT22;10388;52.314;7.938;2023-01-16T00:48:03;5.10;99.90
20459;DHT22;10388;52.314;7.938;2023-01-16T00:50:34;5.00;99.90
20459;DHT22;10388;52.314;7.938;2023-01-16T00:53:05;5.00;99.90
20459;DHT22;10388;52.314;7.938;2023-01-16T00:55:35;5.00;99.90
20459;DHT22;10388;52.314;7.938;2023-01-16T00:58:08;5.00;99.90
20459;DHT22;10388;52.314;7.938;2023-01-16T04:31:47;3.60;99.90
20459;DHT22;10388;52.314;7.938;2023-01-16T04:34:17;3.60;99.90
20459;DHT22;10388;52.314;7.938;2023-01-16T04:36:48;3.50;99.90
20459;DHT22;10388;52.314;7.938;2023-01-16T04:39:19;3.50;99.90
20459;DHT22;10388;52.314;7.938;2023-01-16T04:41:49;3.50;99.90
20459;DHT22;10388;52.314;7.938;2023-01-16T04:44:21;3.40;99.90
20459;DHT22;10388;52.314;7.938;2023-01-16T04:46:51;3.40;99.90
20459;DHT22;10388;52.314;7.938;2023-01-16T04:49:22;3.40;99.90
20459;DHT22;10388;52.314;7.938;2023-01-16T04:51:52;3.40;99.90
20459;DHT22;10388;52.314;7.938;2023-01-16T04:54:23;3.30;99.90
20459;DHT22;10388;52.314;7.938;2023-01-16T04:56:54;3.30;99.90
20459;DHT22;10388;52.314;7.938;2023-01-16T04:59:24;3.30;99.90
20459;DHT22;10388;52.314;7.938;2023-01-16T05:01:55;3.30;99.90
20459;DHT22;10388;52.314;7.938;2023-01-16T05:04:25;3.20;99.90
20459;DHT22;10388;52.314;7.938;2023-01-16T05:06:56;3.20;99.90
20459;DHT22;10388;52.314;7.938;2023-01-16T05:09:26;3.10;99.90
20459;DHT22;10388;52.314;7.938;2023-01-16T05:11:57;3.10;99.90
20459;DHT22;10388;52.314;7.938;2023-01-16T05:14:27;3.10;99.90
20459;DHT22;10388;52.314;7.938;2023-01-16T05:16:58;3.00;99.90
20459;DHT22;10388;52.314;7.938;2023-01-16T05:19:28;2.90;99.90
20459;DHT22;10388;52.314;7.938;2023-01-16T05:21:59;3.00;99.90
20459;DHT22;10388;52.314;7.938;2023-01-16T05:24:29;3.00;99.90
20459;DHT22;10388;52.314;7.938;2023-01-16T05:27:00;3.00;99.90
20459;DHT22;10388;52.314;7.938;2023-01-16T05:29:31;3.00;99.90
20459;DHT22;10388;52.314;7.938;2023-01-16T05:32:01;2.90;99.90
20459;DHT22;10388;52.314;7.938;2023-01-16T05:34:32;2.80;99.90
20459;DHT22;10388;52.314;7.938;2023-01-16T05:37:02;2.80;99.90
20459;DHT22;10388;52.314;7.938;2023-01-16T05:39:33;2.80;99.90
20459;DHT22;10388;52.314;7.938;2023-01-16T05:42:03;2.80;99.90
20459;DHT22;10388;52.314;7.938;2023-01-16T05:44:34;2.80;99.90
20459;DHT22;10388;52.314;7.938;2023-01-16T05:47:04;2.70;99.90
20459;DHT22;10388;52.314;7.938;2023-01-16T05:49:35;2.70;99.90
20459;DHT22;10388;52.314;7.938;2023-01-16T05:52:05;2.70;99.90
20459;DHT22;10388;52.314;7.938;2023-01-16T05:54:36;2.60;99.90
20459;DHT22;10388;52.314;7.938;2023-01-16T05:57:06;2.60;99.90
20459;DHT22;10388;52.314;7.938;2023-01-16T05:59:37;2.60;99.90
20459;DHT22;10388;52.314;7.938;2023-01-16T06:02:08;2.70;99.90
20459;DHT22;10388;52.314;7.938;2023-01-16T06:04:39;2.80;99.90
20459;DHT22;10388;52.314;7.938;2023-01-16T06:07:09;2.70;99.90
20459;DHT22;10388;52.314;7.938;2023-01-16T06:09:40;2.70;99.90
20459;DHT22;10388;52.314;7.938;2023-01-16T06:12:14;2.70;99.90
20459;DHT22;10388;52.314;7.938;2023-01-16T06:14:45;2.60;99.90
20459;DHT22;10388;52.314;7.938;2023-01-16T06:17:16;2.60;99.90
20459;DHT22;10388;52.314;7.938;2023-01-16T06:19:46;2.60;99.90
20459;DHT22;10388;52.314;7.938;2023-01-16T06:22:17;2.60;99.90
20459;DHT22;10388;52.314;7.938;2023-01-16T06:24:48;2.60;99.90
20459;DHT22;10388;52.314;7.938;2023-01-16T06:27:18;2.50;99.90
20459;DHT22;10388;52.314;7.938;2023-01-16T06:29:49;2.50;99.90
20459;DHT22;10388;52.314;7.938;2023-01-16T06:32:19;2.50;99.90
20459;DHT22;10388;52.314;7.938;2023-01-16T06:34:50;2.50;99.90
20459;DHT22;10388;52.314;7.938;2023-01-16T06:37:20;2.50;99.90
20459;DHT22;10388;52.314;7.938;2023-01-16T06:39:51;2.50;99.90
20459;DHT22;10388;52.314;7.938;2023-01-16T06:42:21;2.40;99.90
20459;DHT22;10388;52.314;7.938;2023-01-16T06:44:52;2.40;99.90
20459;DHT22;10388;52.314;7.938;2023-01-16T06:47:22;2.40;99.90
20459;DHT22;10388;52.314;7.938;2023-01-16T06:49:53;2.40;99.90
20459;DHT22;10388;52.314;7.938;2023-01-16T06:52:23;2.40;99.90
20459;DHT22;10388;52.314;7.938;2023-01-16T06:54:54;2.40;99.90
20459;DHT22;10388;52.314;7.938;2023-01-16T06:57:26;2.40;99.90
20459;DHT22;10388;52.314;7.938;2023-01-16T06:59:56;2.30;99.90
20459;DHT22;10388;52.314;7.938;2023-01-16T07:02:27;2.30;99.90
20459;DHT22;10388;52.314;7.938;2023-01-16T07:04:57;2.40;99.90
20459;DHT22;10388;52.314;7.938;2023-01-16T07:07:28;2.30;99.90
20459;DHT22;10388;52.314;7.938;2023-01-16T07:09:58;2.30;99.90
20459;DHT22;10388;52.314;7.938;2023-01-16T07:12:29;2.30;99.90
20459;DHT22;10388;52.314;7.938;2023-01-16T07:14:59;2.30;99.90
20459;DHT22;10388;52.314;7.938;2023-01-16T07:17:48;2.40;99.90
20459;DHT22;10388;52.314;7.938;2023-01-16T07:20:38;2.40;99.90
20459;DHT22;10388;52.314;7.938;2023-01-16T07:23:31;2.40;99.90
20459;DHT22;10388;52.314;7.938;2023-01-16T07:26:05;2.40;99.90
20459;DHT22;10388;52.314;7.938;2023-01-16T07:28:38;2.50;99.90
20459;DHT22;10388;52.314;7.938;2023-01-16T07:31:09;2.50;99.90
20459;DHT22;10388;52.314;7.938;2023-01-16T07:33:39;2.50;99.90
20459;DHT22;10388;52.314;7.938;2023-01-16T07:36:10;2.50;99.90
20459;DHT22;10388;52.314;7.938;2023-01-16T07:38:40;2.60;99.90
20459;DHT22;10388;52.314;7.938;2023-01-16T07:41:11;2.60;99.90
20459;DHT22;10388;52.314;7.938;2023-01-16T07:43:41;2.60;99.90
20459;DHT22;10388;52.314;7.938;2023-01-16T07:46:12;2.70;99.90
20459;DHT22;10388;52.314;7.938;2023-01-16T07:48:42;2.70;99.90
20459;DHT22;10388;52.314;7.938;2023-01-16T07:51:13;2.80;99.90
20459;DHT22;10388;52.314;7.938;2023-01-16T07:53:43;2.80;99.90
20459;DHT22;10388;52.314;7.938;2023-01-16T07:56:14;2.80;99.90
20459;DHT22;10388;52.314;7.938;2023-01-16T07:58:45;2.80;99.90
20459;DHT22;10388;52.314;7.938;2023-01-16T08:01:16;2.80;99.90
20459;DHT22;10388;52.314;7.938;2023-01-16T08:03:47;2.90;99.90
20459;DHT22;10388;52.314;7.938;2023-01-16T08:06:17;2.90;99.90
20459;DHT22;10388;52.314;7.938;2023-01-16T08:08:48;2.90;99.90
20459;DHT22;10388;52.314;7.938;2023-01-16T08:11:19;2.90;99.90
20459;DHT22;10388;52.314;7.938;2023-01-16T08:14:08;3.00;99.90
20459;DHT22;10388;52.314;7.938;2023-01-16T08:16:39;3.00;99.90
20459;DHT22;10388;52.314;7.938;2023-01-16T08:19:10;3.10;99.90
20459;DHT22;10388;52.314;7.938;2023-01-16T08:21:40;3.10;99.90
20459;DHT22;10388;52.314;7.938;2023-01-16T08:24:11;3.20;99.90
20459;DHT22;10388;52.314;7.938;2023-01-16T08:26:44;3.20;99.90
20459;DHT22;10388;52.314;7.938;2023-01-16T08:29:14;3.20;99.90
20459;DHT22;10388;52.314;7.938;2023-01-16T08:31:45;3.20;99.90
20459;DHT22;10388;52.314;7.938;2023-01-16T08:34:16;3.40;99.90
20459;DHT22;10388;52.314;7.938;2023-01-16T08:36:47;3.40;99.90
20459;DHT22;10388;52.314;7.938;2023-01-16T08:39:17;3.40;99.90
20459;DHT22;10388;52.314;7.938;2023-01-16T08:41:48;3.50;99.90
20459;DHT22;10388;52.314;7.938;2023-01-16T08:44:37;3.50;99.90
20459;DHT22;10388;52.314;7.938;2023-01-16T08:47:26;3.60;99.90
20459;DHT22;10388;52.314;7.938;2023-01-16T08:50:17;3.60;99.90
20459;DHT22;10388;52.314;7.938;2023-01-16T08:53:06;3.60;99.90
20459;DHT22;10388;52.314;7.938;2023-01-16T08:55:37;3.70;99.90
20459;DHT22;10388;52.314;7.938;2023-01-16T08:58:09;3.70;99.90
20459;DHT22;10388;52.314;7.938;2023-01-16T09:00:39;3.70;99.90
20459;DHT22;10388;52.314;7.938;2023-01-16T09:03:10;3.70;99.90
20459;DHT22;10388;52.314;7.938;2023-01-16T09:05:42;3.70;99.90
20459;DHT22;10388;52.314;7.938;2023-01-16T09:08:13;3.80;99.90
20459;DHT22;10388;52.314;7.938;2023-01-16T09:10:43;3.90;99.90
20459;DHT22;10388;52.314;7.938;2023-01-16T09:13:34;3.90;99.90
20459;DHT22;10388;52.314;7.938;2023-01-16T09:16:22;3.90;99.90
20459;DHT22;10388;52.314;7.938;2023-01-16T09:18:53;4.00;99.90
20459;DHT22;10388;52.314;7.938;2023-01-16T09:21:23;4.00;99.90
20459;DHT22;10388;52.314;7.938;2023-01-16T09:23:54;4.00;99.90
20459;DHT22;10388;52.314;7.938;2023-01-16T09:26:25;4.10;99.90
20459;DHT22;10388;52.314;7.938;2023-01-16T09:28:56;4.10;99.90
20459;DHT22;10388;52.314;7.938;2023-01-16T09:31:26;4.10;99.90
20459;DHT22;10388;52.314;7.938;2023-01-16T09:33:57;4.10;99.90
20459;DHT22;10388;52.314;7.938;2023-01-16T09:36:28;4.10;99.90
20459;DHT22;10388;52.314;7.938;2023-01-16T09:38:59;4.20;99.90
20459;DHT22;10388;52.314;7.938;2023-01-16T09:41:32;4.30;99.90
20459;DHT22;10388;52.314;7.938;2023-01-16T09:44:25;4.20;99.90
20459;DHT22;10388;52.314;7.938;2023-01-16T09:46:55;4.20;99.90
20459;DHT22;10388;52.314;7.938;2023-01-16T09:49:40;4.30;99.90
20459;DHT22;10388;52.314;7.938;2023-01-16T09:52:18;4.30;99.90
20459;DHT22;10388;52.314;7.938;2023-01-16T09:55:21;4.30;99.90
20459;DHT22;10388;52.314;7.938;2023-01-16T09:58:15;4.30;99.90
20459;DHT22;10388;52.314;7.938;2023-01-16T10:01:09;4.30;99.90
20459;DHT22;10388;52.314;7.938;2023-01-16T10:03:40;4.30;99.90
20459;DHT22;10388;52.314;7.938;2023-01-16T10:06:25;4.30;99.90
20459;DHT22;10388;52.314;7.938;2023-01-16T10:09:22;4.30;99.90
20459;DHT22;10388;52.314;7.938;2023-01-16T10:12:10;4.20;99.90
20459;DHT22;10388;52.314;7.938;2023-01-16T10:14:57;4.20;99.90
20459;DHT22;10388;52.314;7.938;2023-01-16T10:17:55;4.20;99.90
20459;DHT22;10388;52.314;7.938;2023-01-16T10:20:47;4.20;99.90
20459;DHT22;10388;52.314;7.938;2023-01-16T10:23:34;4.20;99.90
20459;DHT22;10388;52.314;7.938;2023-01-16T10:31:40;4.20;99.90
20459;DHT22;10388;52.314;7.938;2023-01-16T10:34:20;4.20;99.90
20459;DHT22;10388;52.314;7.938;2023-01-16T10:36:55;4.20;99.90
20459;DHT22;10388;52.314;7.938;2023-01-16T10:39:35;4.20;99.90
20459;DHT22;10388;52.314;7.938;2023-01-16T10:47:53;4.30;99.90
20459;DHT22;10388;52.314;7.938;2023-01-16T10:50:43;4.30;99.90
20459;DHT22;10388;52.314;7.938;2023-01-16T10:53:14;4.30;99.90
20459;DHT22;10388;52.314;7.938;2023-01-16T10:55:47;4.30;99.90
20459;DHT22;10388;52.314;7.938;2023-01-16T10:58:33;4.30;99.90
20459;DHT22;10388;52.314;7.938;2023-01-16T11:01:14;4.30;99.90
20459;DHT22;10388;52.314;7.938;2023-01-16T11:03:50;4.40;99.90
20459;DHT22;10388;52.314;7.938;2023-01-16T11:06:24;4.40;99.90
20459;DHT22;10388;52.314;7.938;2023-01-16T11:11:35;4.40;99.90
20459;DHT22;10388;52.314;7.938;2023-01-16T11:14:28;4.40;99.90
20459;DHT22;10388;52.314;7.938;2023-01-16T11:17:34;4.40;99.90
20459;DHT22;10388;52.314;7.938;2023-01-16T11:20:31;4.40;99.90
20459;DHT22;10388;52.314;7.938;2023-01-16T11:23:19;4.50;99.90
20459;DHT22;10388;52.314;7.938;2023-01-16T11:25:52;4.60;99.90
20459;DHT22;10388;52.314;7.938;2023-01-16T11:28:26;4.60;99.90
20459;DHT22;10388;52.314;7.938;2023-01-16T11:31:05;4.60;99.90
20459;DHT22;10388;52.314;7.938;2023-01-16T11:33:42;4.70;99.90
20459;DHT22;10388;52.314;7.938;2023-01-16T11:36:17;4.80;99.90
20459;DHT22;10388;52.314;7.938;2023-01-16T11:38:48;4.70;99.90
20459;DHT22;10388;52.314;7.938;2023-01-16T11:41:24;4.80;99.90
20459;DHT22;10388;52.314;7.938;2023-01-16T11:44:14;4.70;99.90
20459;DHT22;10388;52.314;7.938;2023-01-16T11:47:04;4.70;99.90
20459;DHT22;10388;52.314;7.938;2023-01-16T11:49:39;4.80;99.90
20459;DHT22;10388;52.314;7.938;2023-01-16T11:52:13;4.80;99.90
20459;DHT22;10388;52.314;7.938;2023-01-16T11:54:44;4.80;99.90
20459;DHT22;10388;52.314;7.938;2023-01-16T12:00:41;4.70;99.90
20459;DHT22;10388;52.314;7.938;2023-01-16T12:09:35;4.60;99.90
20459;DHT22;10388;52.314;7.938;2023-01-16T12:12:58;4.60;99.90
20459;DHT22;10388;52.314;7.938;2023-01-16T12:15:35;4.60;99.90
20459;DHT22;10388;52.314;7.938;2023-01-16T12:21:03;4.50;99.90
20459;DHT22;10388;52.314;7.938;2023-01-16T12:24:32;4.50;99.90
20459;DHT22;10388;52.314;7.938;2023-01-16T12:27:07;4.50;99.90
20459;DHT22;10388;52.314;7.938;2023-01-16T12:29:55;4.40;99.90
20459;DHT22;10388;52.314;7.938;2023-01-16T12:35:57;4.30;99.90
20459;DHT22;10388;52.314;7.938;2023-01-16T12:38:58;4.30;99.90
20459;DHT22;10388;52.314;7.938;2023-01-16T12:41:47;4.40;99.90
20459;DHT22;10388;52.314;7.938;2023-01-16T12:54:12;4.50;99.90
20459;DHT22;10388;52.314;7.938;2023-01-16T13:00:17;4.60;99.90
20459;DHT22;10388;52.314;7.938;2023-01-16T13:02:59;4.70;99.90
20459;DHT22;10388;52.314;7.938;2023-01-16T13:05:33;4.70;99.90
20459;DHT22;10388;52.314;7.938;2023-01-16T13:08:14;4.70;99.90
20459;DHT22;10388;52.314;7.938;2023-01-16T13:10:49;4.80;99.90
20459;DHT22;10388;52.314;7.938;2023-01-16T13:14:01;4.80;99.90
20459;DHT22;10388;52.314;7.938;2023-01-16T13:16:42;4.90;99.90
20459;DHT22;10388;52.314;7.938;2023-01-16T13:19:20;5.00;99.90
20459;DHT22;10388;52.314;7.938;2023-01-16T13:22:14;5.00;99.90
20459;DHT22;10388;52.314;7.938;2023-01-16T13:27:41;5.10;99.90
20459;DHT22;10388;52.314;7.938;2023-01-16T13:30:18;5.10;99.90
20459;DHT22;10388;52.314;7.938;2023-01-16T13:32:59;5.10;99.90
20459;DHT22;10388;52.314;7.938;2023-01-16T13:38:48;5.20;99.90
20459;DHT22;10388;52.314;7.938;2023-01-16T13:41:30;5.20;99.90
20459;DHT22;10388;52.314;7.938;2023-01-16T13:47:17;5.20;99.90
20459;DHT22;10388;52.314;7.938;2023-01-16T13:49:49;5.30;99.90
20459;DHT22;10388;52.314;7.938;2023-01-16T13:52:25;5.40;99.90
20459;DHT22;10388;52.314;7.938;2023-01-16T13:55:01;5.40;99.90
20459;DHT22;10388;52.314;7.938;2023-01-16T13:57:36;5.50;99.90
20459;DHT22;10388;52.314;7.938;2023-01-16T14:00:12;5.50;99.90
20459;DHT22;10388;52.314;7.938;2023-01-16T14:02:44;5.40;99.90
20459;DHT22;10388;52.314;7.938;2023-01-16T14:05:16;5.30;99.90
20459;DHT22;10388;52.314;7.938;2023-01-16T14:08:26;5.30;99.90
20459;DHT22;10388;52.314;7.938;2023-01-16T14:13:45;5.20;99.90
20459;DHT22;10388;52.314;7.938;2023-01-16T14:16:35;5.20;99.90
20459;DHT22;10388;52.314;7.938;2023-01-16T14:19:21;5.20;99.90
20459;DHT22;10388;52.314;7.938;2023-01-16T14:22:01;5.20;99.90
20459;DHT22;10388;52.314;7.938;2023-01-16T14:24:43;5.10;99.90
20459;DHT22;10388;52.314;7.938;2023-01-16T14:27:18;5.10;99.90
20459;DHT22;10388;52.314;7.938;2023-01-16T14:29:57;5.00;99.90
20459;DHT22;10388;52.314;7.938;2023-01-16T14:32:31;5.00;99.90
20459;DHT22;10388;52.314;7.938;2023-01-16T14:35:15;5.00;99.90
20459;DHT22;10388;52.314;7.938;2023-01-16T14:37:57;5.00;99.90
20459;DHT22;10388;52.314;7.938;2023-01-16T14:40:30;5.00;99.90
20459;DHT22;10388;52.314;7.938;2023-01-16T14:43:30;5.00;99.90
20459;DHT22;10388;52.314;7.938;2023-01-16T14:46:27;5.00;99.90
20459;DHT22;10388;52.314;7.938;2023-01-16T14:50:39;5.00;99.90
20459;DHT22;10388;52.314;7.938;2023-01-16T14:53:04;5.00;99.90
20459;DHT22;10388;52.314;7.938;2023-01-16T14:56:10;5.00;99.90
20459;DHT22;10388;52.314;7.938;2023-01-16T14:58:48;5.00;99.90
20459;DHT22;10388;52.314;7.938;2023-01-16T15:01:27;5.00;99.90
20459;DHT22;10388;52.314;7.938;2023-01-16T15:04:20;5.00;99.90
20459;DHT22;10388;52.314;7.938;2023-01-16T15:06:57;5.00;99.90
20459;DHT22;10388;52.314;7.938;2023-01-16T15:09:30;4.90;99.90
20459;DHT22;10388;52.314;7.938;2023-01-16T15:12:08;4.90;99.90
20459;DHT22;10388;52.314;7.938;2023-01-16T15:14:54;4.90;99.90
20459;DHT22;10388;52.314;7.938;2023-01-16T15:17:31;4.90;99.90
20459;DHT22;10388;52.314;7.938;2023-01-16T15:20:26;4.80;99.90
20459;DHT22;10388;52.314;7.938;2023-01-16T15:23:29;4.80;99.90
20459;DHT22;10388;52.314;7.938;2023-01-16T15:31:57;4.50;99.90
20459;DHT22;10388;52.314;7.938;2023-01-16T15:34:31;4.50;99.90
20459;DHT22;10388;52.314;7.938;2023-01-16T15:37:18;4.50;99.90
20459;DHT22;10388;52.314;7.938;2023-01-16T15:39:50;4.40;99.90
20459;DHT22;10388;52.314;7.938;2023-01-16T15:42:24;4.40;99.90
20459;DHT22;10388;52.314;7.938;2023-01-16T15:45:22;4.40;99.90
20459;DHT22;10388;52.314;7.938;2023-01-16T15:48:46;4.40;99.90
20459;DHT22;10388;52.314;7.938;2023-01-16T15:51:21;4.30;99.90
20459;DHT22;10388;52.314;7.938;2023-01-16T15:53:51;4.20;99.90
20459;DHT22;10388;52.314;7.938;2023-01-16T15:58:56;4.20;99.90
20459;DHT22;10388;52.314;7.938;2023-01-16T16:01:30;4.10;99.90
20459;DHT22;10388;52.314;7.938;2023-01-16T16:04:02;4.10;99.90
20459;DHT22;10388;52.314;7.938;2023-01-16T16:06:34;4.10;99.90
20459;DHT22;10388;52.314;7.938;2023-01-16T16:09:19;4.10;99.90
20459;DHT22;10388;52.314;7.938;2023-01-16T16:11:50;4.10;99.90
20459;DHT22;10388;52.314;7.938;2023-01-16T16:14:33;4.00;99.90
20459;DHT22;10388;52.314;7.938;2023-01-16T16:17:31;4.00;99.90
20459;DHT22;10388;52.314;7.938;2023-01-16T16:26:04;3.90;99.90
20459;DHT22;10388;52.314;7.938;2023-01-16T16:28:37;3.90;99.90
20459;DHT22;10388;52.314;7.938;2023-01-16T16:31:22;4.00;99.90
20459;DHT22;10388;52.314;7.938;2023-01-16T16:33:58;3.90;99.90
20459;DHT22;10388;52.314;7.938;2023-01-16T16:36:37;3.90;99.90
20459;DHT22;10388;52.314;7.938;2023-01-16T16:47:40;3.90;99.90
20459;DHT22;10388;52.314;7.938;2023-01-16T16:50:35;3.90;99.90
20459;DHT22;10388;52.314;7.938;2023-01-16T16:53:11;3.80;99.90
20459;DHT22;10388;52.314;7.938;2023-01-16T16:55:54;3.80;99.90
20459;DHT22;10388;52.314;7.938;2023-01-16T16:58:41;3.80;99.90
20459;DHT22;10388;52.314;7.938;2023-01-16T17:01:14;3.80;99.90
20459;DHT22;10388;52.314;7.938;2023-01-16T17:03:48;3.80;99.90
20459;DHT22;10388;52.314;7.938;2023-01-16T17:06:22;3.80;99.90
20459;DHT22;10388;52.314;7.938;2023-01-16T17:08:53;3.80;99.90
20459;DHT22;10388;52.314;7.938;2023-01-16T17:11:26;3.80;99.90
20459;DHT22;10388;52.314;7.938;2023-01-16T17:13:56;3.80;99.90
20459;DHT22;10388;52.314;7.938;2023-01-16T17:16:28;3.80;99.90
20459;DHT22;10388;52.314;7.938;2023-01-16T17:19:01;3.80;99.90
20459;DHT22;10388;52.314;7.938;2023-01-16T17:21:32;3.80;99.90
20459;DHT22;10388;52.314;7.938;2023-01-16T17:24:03;3.80;99.90
20459;DHT22;10388;52.314;7.938;2023-01-16T17:26:34;3.80;99.90
20459;DHT22;10388;52.314;7.938;2023-01-16T17:29:09;3.80;99.90
20459;DHT22;10388;52.314;7.938;2023-01-16T17:31:40;3.80;99.90
20459;DHT22;10388;52.314;7.938;2023-01-16T17:34:20;3.80;99.90
20459;DHT22;10388;52.314;7.938;2023-01-16T17:36:51;3.80;99.90
20459;DHT22;10388;52.314;7.938;2023-01-16T17:39:21;3.80;99.90
20459;DHT22;10388;52.314;7.938;2023-01-16T17:41:52;3.80;99.90
20459;DHT22;10388;52.314;7.938;2023-01-16T17:44:24;3.80;99.90
20459;DHT22;10388;52.314;7.938;2023-01-16T17:47:30;3.70;99.90
20459;DHT22;10388;52.314;7.938;2023-01-16T17:50:02;3.70;99.90
20459;DHT22;10388;52.314;7.938;2023-01-16T17:52:51;3.70;99.90
20459;DHT22;10388;52.314;7.938;2023-01-16T17:55:23;3.70;99.90
20459;DHT22;10388;52.314;7.938;2023-01-16T17:58:12;3.70;99.90
20459;DHT22;10388;52.314;7.938;2023-01-16T18:00:45;3.60;99.90
20459;DHT22;10388;52.314;7.938;2023-01-16T18:03:16;3.60;99.90
20459;DHT22;10388;52.314;7.938;2023-01-16T18:05:48;3.70;99.90
20459;DHT22;10388;52.314;7.938;2023-01-16T18:08:19;3.70;99.90
20459;DHT22;10388;52.314;7.938;2023-01-16T18:10:50;3.70;99.90
20459;DHT22;10388;52.314;7.938;2023-01-16T18:13:20;3.60;99.90
20459;DHT22;10388;52.314;7.938;2023-01-16T18:16:14;3.60;99.90
20459;DHT22;10388;52.314;7.938;2023-01-16T18:19:03;3.60;99.90
20459;DHT22;10388;52.314;7.938;2023-01-16T18:21:37;3.70;99.90
20459;DHT22;10388;52.314;7.938;2023-01-16T18:24:35;3.70;99.90
20459;DHT22;10388;52.314;7.938;2023-01-16T18:27:08;3.70;99.90
20459;DHT22;10388;52.314;7.938;2023-01-16T18:29:40;3.70;99.90
20459;DHT22;10388;52.314;7.938;2023-01-16T18:32:12;3.70;99.90
20459;DHT22;10388;52.314;7.938;2023-01-16T18:35:04;3.70;99.90
20459;DHT22;10388;52.314;7.938;2023-01-16T18:40:13;3.70;99.90
20459;DHT22;10388;52.314;7.938;2023-01-16T18:43:03;3.70;99.90
20459;DHT22;10388;52.314;7.938;2023-01-16T18:45:52;3.80;99.90
20459;DHT22;10388;52.314;7.938;2023-01-16T18:48:41;3.80;99.90
20459;DHT22;10388;52.314;7.938;2023-01-16T18:51:30;3.80;99.90
20459;DHT22;10388;52.314;7.938;2023-01-16T18:54:20;3.80;99.90
20459;DHT22;10388;52.314;7.938;2023-01-16T18:57:12;3.80;99.90
20459;DHT22;10388;52.314;7.938;2023-01-16T19:00:04;3.80;99.90
20459;DHT22;10388;52.314;7.938;2023-01-16T19:02:57;3.80;99.90
20459;DHT22;10388;52.314;7.938;2023-01-16T19:05:27;3.80;99.90
20459;DHT22;10388;52.314;7.938;2023-01-16T19:07:59;3.90;99.90
20459;DHT22;10388;52.314;7.938;2023-01-16T19:10:33;3.90;99.90
20459;DHT22;10388;52.314;7.938;2023-01-16T19:13:04;3.90;99.90
20459;DHT22;10388;52.314;7.938;2023-01-16T19:15:38;3.90;99.90
20459;DHT22;10388;52.314;7.938;2023-01-16T19:18:29;3.90;99.90
20459;DHT22;10388;52.314;7.938;2023-01-16T19:20:59;3.90;99.90
20459;DHT22;10388;52.314;7.938;2023-01-16T19:23:30;3.90;99.90
20459;DHT22;10388;52.314;7.938;2023-01-16T19:26:03;3.90;99.90
20459;DHT22;10388;52.314;7.938;2023-01-16T19:28:34;3.90;99.90
20459;DHT22;10388;52.314;7.938;2023-01-16T19:31:05;3.90;99.90
20459;DHT22;10388;52.314;7.938;2023-01-16T19:33:37;3.90;99.90
20459;DHT22;10388;52.314;7.938;2023-01-16T19:36:08;3.90;99.90
20459;DHT22;10388;52.314;7.938;2023-01-16T19:38:39;3.90;99.90
20459;DHT22;10388;52.314;7.938;2023-01-16T19:41:09;3.90;99.90
20459;DHT22;10388;52.314;7.938;2023-01-16T19:44:00;3.90;99.90
20459;DHT22;10388;52.314;7.938;2023-01-16T19:46:49;3.90;99.90
20459;DHT22;10388;52.314;7.938;2023-01-16T19:49:20;3.90;99.90
20459;DHT22;10388;52.314;7.938;2023-01-16T19:51:51;3.90;99.90
20459;DHT22;10388;52.314;7.938;2023-01-16T19:54:22;3.90;99.90
20459;DHT22;10388;52.314;7.938;2023-01-16T19:56:55;3.90;99.90
20459;DHT22;10388;52.314;7.938;2023-01-16T19:59:26;3.90;99.90
20459;DHT22;10388;52.314;7.938;2023-01-16T20:01:59;3.90;99.90
20459;DHT22;10388;52.314;7.938;2023-01-16T20:04:36;3.90;99.90
20459;DHT22;10388;52.314;7.938;2023-01-16T20:07:10;3.90;99.90
20459;DHT22;10388;52.314;7.938;2023-01-16T20:09:41;3.90;99.90
20459;DHT22;10388;52.314;7.938;2023-01-16T20:12:14;3.90;99.90
20459;DHT22;10388;52.314;7.938;2023-01-16T20:14:55;3.90;99.90
20459;DHT22;10388;52.314;7.938;2023-01-16T20:17:30;3.90;99.90
20459;DHT22;10388;52.314;7.938;2023-01-16T20:20:01;3.90;99.90
20459;DHT22;10388;52.314;7.938;2023-01-16T20:22:34;3.90;99.90
20459;DHT22;10388;52.314;7.938;2023-01-16T20:25:06;3.90;99.90
20459;DHT22;10388;52.314;7.938;2023-01-16T20:27:40;3.90;99.90
20459;DHT22;10388;52.314;7.938;2023-01-16T20:30:12;3.90;99.90
20459;DHT22;10388;52.314;7.938;2023-01-16T20:33:06;3.90;99.90
20459;DHT22;10388;52.314;7.938;2023-01-16T20:35:38;3.90;99.90
20459;DHT22;10388;52.314;7.938;2023-01-16T20:38:09;3.90;99.90
20459;DHT22;10388;52.314;7.938;2023-01-16T20:40:39;3.90;99.90
20459;DHT22;10388;52.314;7.938;2023-01-16T20:43:10;3.90;99.90
20459;DHT22;10388;52.314;7.938;2023-01-16T20:46:03;3.90;99.90
20459;DHT22;10388;52.314;7.938;2023-01-16T20:48:34;3.90;99.90
20459;DHT22;10388;52.314;7.938;2023-01-16T20:51:04;3.90;99.90
20459;DHT22;10388;52.314;7.938;2023-01-16T20:53:38;3.90;99.90
20459;DHT22;10388;52.314;7.938;2023-01-16T20:56:09;3.90;99.90
20459;DHT22;10388;52.314;7.938;2023-01-16T20:58:40;3.90;99.90
20459;DHT22;10388;52.314;7.938;2023-01-16T21:01:11;3.90;99.90
20459;DHT22;10388;52.314;7.938;2023-01-16T21:03:41;3.90;99.90
20459;DHT22;10388;52.314;7.938;2023-01-16T21:06:12;3.90;99.90
20459;DHT22;10388;52.314;7.938;2023-01-16T21:08:45;3.90;99.90
20459;DHT22;10388;52.314;7.938;2023-01-16T21:11:16;3.90;99.90
20459;DHT22;10388;52.314;7.938;2023-01-16T21:14:05;3.90;99.90
20459;DHT22;10388;52.314;7.938;2023-01-16T21:16:49;3.90;99.90
20459;DHT22;10388;52.314;7.938;2023-01-16T21:19:46;3.90;99.90
20459;DHT22;10388;52.314;7.938;2023-01-16T21:22:37;3.90;99.90
20459;DHT22;10388;52.314;7.938;2023-01-16T21:25:13;3.90;99.90
20459;DHT22;10388;52.314;7.938;2023-01-16T21:27:43;3.90;99.90
20459;DHT22;10388;52.314;7.938;2023-01-16T21:30:15;3.90;99.90
20459;DHT22;10388;52.314;7.938;2023-01-16T21:32:46;3.90;99.90
20459;DHT22;10388;52.314;7.938;2023-01-16T21:35:17;3.90;99.90
20459;DHT22;10388;52.314;7.938;2023-01-16T21:37:47;4.00;99.90